Olim IV — CFK9604 — position and weather

sailwx.info

Track history (hours):
 
Tides and Currents Weather Stations Pressure Air Temp Water Temp Dewpoint Dewpoint Depression Visibility Wind Speed Wind Dir Waves Ship Positions

Olim IV

Last reported at 2017-Sep-20 19:21 UTC. Time now 2017-Sep-26 00:09 UTC.
Position N 49°10' W 123°39'.

Length 14 m.

Type: Pleasure craft. MMSI: 316017604.

Date/timePositionNaut miles runAvg speedWind from/ knotsBaromVisibWave heightAir tempDewpointWater temp
2017-Sep-20 19:21N 49°10' W 123°39'3 8.6
2017-Sep-20 18:57N 49°12' W 123°44'5 8.5
2017-Sep-20 18:20N 49°14' W 123°51'3 8.9
2017-Sep-20 17:58N 49°15' W 123°56'4 8.6
2017-Sep-20 17:30N 49°16' W 124°01'4 8.4
2017-Sep-20 17:00N 49°18' W 124°07'4 8.6
2017-Sep-20 16:29N 49°21' W 124°13'6 8.5
2017-Sep-20 15:49N 49°23' W 124°21'3 8.1
2017-Sep-20 15:28N 49°24' W 124°24'4 7.8
2017-Sep-20 14:59N 49°26' W 124°30'49 2.2
2017-Sep-19 16:27N 50°05' W 125°15'1 1.8
2017-Sep-19 15:50N 50°04' W 125°13'1 0.1
2017-Sep-19 00:38N 50°05' W 125°15'3 8.2
2017-Sep-19 00:18N 50°07' W 125°18'93 3.6
2017-Sep-17 22:45N 50°52' W 127°26'2 6.9
2017-Sep-17 22:28N 50°54' W 127°28'4 7.9
2017-Sep-17 22:00N 50°56' W 127°33'42 1.9
2017-Sep-16 23:26N 51°36' W 127°54'4 8.4
2017-Sep-16 22:59N 51°39' W 127°58'4 7.9
2017-Sep-16 22:30N 51°39' W 128°04'3 6.5
2017-Sep-16 22:00N 51°42' W 128°07'4 8.0
2017-Sep-16 21:30N 51°45' W 128°12'4 7.9
2017-Sep-16 20:58N 51°48' W 128°17'142 3.0
2017-Sep-14 21:24N 53°53' W 130°07'4 8.3
2017-Sep-14 20:58N 53°56' W 130°11'4 8.2
2017-Sep-14 20:28N 54°00' W 130°13'4 7.7
2017-Sep-14 20:01N 54°03' W 130°16'4 8.0
2017-Sep-14 19:30N 54°07' W 130°19'4 8.0
2017-Sep-14 19:00N 54°11' W 130°21'4 8.6
2017-Sep-14 18:30N 54°15' W 130°21'  
Track history (hours):
 
Tides and Currents Weather Stations Pressure Air Temp Water Temp Dewpoint Dewpoint Depression Visibility Wind Speed Wind Dir Waves Ship Positions

Olim IV

Last reported at 2017-Sep-20 19:21 UTC. Time now 2017-Sep-26 00:09 UTC.
Position N 49°10' W 123°39'.

Length 14 m.

Type: Pleasure craft. MMSI: 316017604.

Date/timePositionNaut miles runAvg speedWind from/ knotsBaromVisibWave heightAir tempDewpointWater temp
2017-Sep-20 19:21N 49°10' W 123°39'3 8.6
2017-Sep-20 18:57N 49°12' W 123°44'5 8.5
2017-Sep-20 18:20N 49°14' W 123°51'3 8.9
2017-Sep-20 17:58N 49°15' W 123°56'4 8.6
2017-Sep-20 17:30N 49°16' W 124°01'4 8.4
2017-Sep-20 17:00N 49°18' W 124°07'4 8.6
2017-Sep-20 16:29N 49°21' W 124°13'6 8.5
2017-Sep-20 15:49N 49°23' W 124°21'3 8.1
2017-Sep-20 15:28N 49°24' W 124°24'4 7.8
2017-Sep-20 14:59N 49°26' W 124°30'49 2.2
2017-Sep-19 16:27N 50°05' W 125°15'1 1.8
2017-Sep-19 15:50N 50°04' W 125°13'1 0.1
2017-Sep-19 00:38N 50°05' W 125°15'3 8.2
2017-Sep-19 00:18N 50°07' W 125°18'93 3.6
2017-Sep-17 22:45N 50°52' W 127°26'2 6.9
2017-Sep-17 22:28N 50°54' W 127°28'4 7.9
2017-Sep-17 22:00N 50°56' W 127°33'42 1.9
2017-Sep-16 23:26N 51°36' W 127°54'4 8.4
2017-Sep-16 22:59N 51°39' W 127°58'4 7.9
2017-Sep-16 22:30N 51°39' W 128°04'3 6.5
2017-Sep-16 22:00N 51°42' W 128°07'4 8.0
2017-Sep-16 21:30N 51°45' W 128°12'4 7.9
2017-Sep-16 20:58N 51°48' W 128°17'142 3.0
2017-Sep-14 21:24N 53°53' W 130°07'4 8.3
2017-Sep-14 20:58N 53°56' W 130°11'4 8.2
2017-Sep-14 20:28N 54°00' W 130°13'4 7.7
2017-Sep-14 20:01N 54°03' W 130°16'4 8.0
2017-Sep-14 19:30N 54°07' W 130°19'4 8.0
2017-Sep-14 19:00N 54°11' W 130°21'4 8.6
2017-Sep-14 18:30N 54°15' W 130°21'  

Dump ship's entire track history